P2 — ZCXP4 — position and weather

sailwx.info

Track history (hours):
 
Tides and Currents Weather Stations Pressure Air Temp Water Temp Dewpoint Dewpoint Depression Visibility Wind Speed Wind Dir Waves Ship Positions

P2

Last reported at 2017-Nov-12 15:38 UTC. Time now 2017-Nov-19 21:41 UTC.
Position N 28°28' W 016°15'.

Length 38 m; draft 5.5 m.

Type: Sailing vessel. MMSI: 319400000.

Date/timePositionNaut miles runAvg speedWind from/ knotsBaromVisibWave heightAir tempDewpointWater temp
2017-Nov-12 15:38N 28°28' W 016°15'0 0.0
2017-Nov-12 15:26N 28°28' W 016°15'0 0.0
2017-Nov-12 13:56N 28°28' W 016°15'0 0.0
2017-Nov-12 13:29N 28°28' W 016°15'0 0.0
2017-Nov-12 12:59N 28°28' W 016°15'0 0.0
2017-Nov-12 12:26N 28°28' W 016°15'0 0.0
2017-Nov-12 11:59N 28°28' W 016°15'0 0.0
2017-Nov-12 10:17N 28°28' W 016°15'0 0.0
2017-Nov-12 08:50N 28°28' W 016°15'0 0.0
2017-Nov-12 08:29N 28°28' W 016°15'0 0.0
2017-Nov-12 03:53N 28°28' W 016°15'0 0.0
2017-Nov-12 03:26N 28°28' W 016°15'0 0.0
2017-Nov-12 02:56N 28°28' W 016°15'0 0.0
2017-Nov-12 02:23N 28°28' W 016°15'0 0.0
2017-Nov-12 01:11N 28°28' W 016°15'0 0.0
2017-Nov-12 00:53N 28°28' W 016°15'0 0.0
2017-Nov-12 00:29N 28°28' W 016°15'0 0.0
2017-Nov-11 23:59N 28°28' W 016°15'0 0.0
2017-Nov-11 23:29N 28°28' W 016°15'0 0.0
2017-Nov-11 22:59N 28°28' W 016°15'0 0.0
2017-Nov-11 22:29N 28°28' W 016°15'0 0.0
2017-Nov-11 21:59N 28°28' W 016°15'0 0.0
2017-Nov-11 21:29N 28°28' W 016°15'0 0.0
2017-Nov-11 20:59N 28°28' W 016°15'0 0.0
2017-Nov-11 20:29N 28°28' W 016°15'0 0.0
2017-Nov-11 19:59N 28°28' W 016°15'0 0.0
2017-Nov-11 19:17N 28°28' W 016°15'0 0.0
2017-Nov-11 19:00N 28°28' W 016°15'0 0.0
2017-Nov-11 18:30N 28°28' W 016°15'0 0.0
2017-Nov-11 18:00N 28°28' W 016°15'0 0.0
2017-Nov-11 17:30N 28°28' W 016°15'0 0.0
2017-Nov-11 17:00N 28°28' W 016°15'0 0.0
2017-Nov-11 16:30N 28°28' W 016°15'0 0.1
2017-Nov-11 16:01N 28°28' W 016°15'1 1.8
2017-Nov-11 15:30N 28°27' W 016°14'4 8.8
2017-Nov-11 15:00N 28°29' W 016°09'4 8.5
2017-Nov-11 14:30N 28°32' W 016°06'4 8.6
2017-Nov-11 14:00N 28°34' W 016°02'5 9.2
2017-Nov-11 13:30N 28°37' W 015°57'5 8.9
2017-Nov-11 12:59N 28°40' W 015°53'4 9.2
2017-Nov-11 12:30N 28°43' W 015°49'5 9.2
2017-Nov-11 12:00N 28°46' W 015°45'5 9.4
2017-Nov-11 11:30N 28°49' W 015°41'5 9.2
2017-Nov-11 11:00N 28°51' W 015°37'5 9.2
2017-Nov-11 10:30N 28°54' W 015°33'5 9.1
2017-Nov-11 10:00N 28°57' W 015°29'4 9.0
2017-Nov-11 09:30N 28°60' W 015°25'5 9.3
2017-Nov-11 09:00N 29°03' W 015°21'5 9.3
2017-Nov-11 08:30N 29°06' W 015°16'5 9.2
2017-Nov-11 08:00N 29°08' W 015°12'5 9.0
2017-Nov-11 07:31N 29°11' W 015°08'4 8.8
2017-Nov-11 07:00N 29°14' W 015°04'5 9.1
2017-Nov-11 06:30N 29°16' W 015°00'5 9.2
2017-Nov-11 06:00N 29°19' W 014°56'5 9.4
2017-Nov-11 05:30N 29°22' W 014°51'5 9.0
2017-Nov-11 05:00N 29°25' W 014°47'5 9.2
2017-Nov-11 04:30N 29°28' W 014°43'4 9.1
2017-Nov-11 04:01N 29°30' W 014°39'5 9.2
2017-Nov-11 03:30N 29°33' W 014°35'5 9.1
2017-Nov-11 03:01N 29°36' W 014°31'5 9.0
2017-Nov-11 02:30N 29°39' W 014°27'5 9.1
2017-Nov-11 02:00N 29°42' W 014°23'5 9.0
2017-Nov-11 01:30N 29°45' W 014°19'4 9.0
2017-Nov-11 01:00N 29°49' W 014°16'5 9.2
2017-Nov-11 00:30N 29°52' W 014°12'5 9.3
2017-Nov-10 23:58N 29°56' W 014°08'4 9.2
2017-Nov-10 23:30N 29°59' W 014°05'5 9.4
2017-Nov-10 22:59N 30°02' W 014°01'4 9.4
2017-Nov-10 22:30N 30°06' W 013°58'7 9.2
2017-Nov-10 21:48N 30°11' W 013°53'8 9.1
2017-Nov-10 20:52N 30°17' W 013°46'4 8.9
2017-Nov-10 20:26N 30°20' W 013°43'4 8.6
2017-Nov-10 20:00N 30°23' W 013°40'4 8.9
2017-Nov-10 19:31N 30°26' W 013°37'5 8.8
2017-Nov-10 19:00N 30°30' W 013°34'5 9.1
2017-Nov-10 18:28N 30°34' W 013°31'4 9.1
2017-Nov-10 18:00N 30°37' W 013°28'6 9.1
2017-Nov-10 17:24N 30°42' W 013°25'9 9.4
2017-Nov-10 16:28N 30°49' W 013°19'5 9.3
2017-Nov-10 15:57N 30°53' W 013°17'47 9.1
2017-Nov-10 10:48N 31°31' W 012°44'17 8.9
2017-Nov-10 08:57N 31°45' W 012°34'410.2
2017-Nov-10 08:30N 31°48' W 012°30'610.3
2017-Nov-10 07:57N 31°53' W 012°26'610.2
2017-Nov-10 07:21N 31°57' W 012°21'2810.5
2017-Nov-10 04:43N 32°18' W 012°00'1910.6
2017-Nov-10 02:53N 32°33' W 011°46'  
2017-Nov-07 14:51N 36°08' W 005°22'0 0.0
2017-Nov-07 14:25N 36°08' W 005°22'0 0.0
2017-Nov-07 14:00N 36°08' W 005°22'0 0.0
2017-Nov-07 13:30N 36°08' W 005°22'0 0.7
2017-Nov-07 13:00N 36°09' W 005°22'0 0.0
2017-Nov-07 12:30N 36°09' W 005°22'0 0.0
2017-Nov-07 12:00N 36°09' W 005°22'0 0.0
2017-Nov-07 11:30N 36°09' W 005°22'1 1.2
2017-Nov-07 11:00N 36°09' W 005°23'2 3.8
2017-Nov-07 10:30N 36°07' W 005°22'4 8.7
2017-Nov-07 10:00N 36°06' W 005°17'510.4
2017-Nov-07 09:30N 36°07' W 005°10'6 9.2
2017-Nov-07 08:51N 36°07' W 005°03'3 8.6
2017-Nov-07 08:30N 36°07' W 004°59'4 8.2
2017-Nov-07 08:01N 36°08' W 004°54'4 7.7
2017-Nov-07 07:30N 36°08' W 004°49'4 7.3
2017-Nov-07 07:00N 36°09' W 004°45'4 7.7
2017-Nov-07 06:30N 36°09' W 004°40'4 8.2
2017-Nov-07 06:00N 36°10' W 004°35'4 8.5
2017-Nov-07 05:30N 36°10' W 004°30'4 8.4
2017-Nov-07 05:00N 36°11' W 004°25'4 8.1
2017-Nov-07 04:30N 36°11' W 004°20'4 8.0
2017-Nov-07 04:00N 36°11' W 004°15'4 8.1
2017-Nov-07 03:30N 36°12' W 004°10'4 8.1
2017-Nov-07 03:00N 36°12' W 004°05'4 8.1
2017-Nov-07 02:30N 36°12' W 003°60'4 7.8
2017-Nov-07 02:00N 36°12' W 003°55'4 7.5
2017-Nov-07 01:30N 36°12' W 003°50'4 8.3
2017-Nov-07 01:00N 36°12' W 003°45'5 9.2
2017-Nov-07 00:30N 36°14' W 003°40'5 9.8
2017-Nov-07 00:00N 36°15' W 003°34'5 9.7
2017-Nov-06 23:30N 36°16' W 003°28'5 9.3
2017-Nov-06 23:00N 36°17' W 003°23'5 9.4
2017-Nov-06 22:30N 36°18' W 003°17'5 9.5
2017-Nov-06 22:00N 36°19' W 003°11'5 9.6
2017-Nov-06 21:30N 36°20' W 003°05'5 9.8
2017-Nov-06 21:00N 36°20' W 002°59'5 9.6
2017-Nov-06 20:30N 36°21' W 002°53'298 9.2
2017-Nov-05 11:54N 39°12' E 002°16'4 8.8
2017-Nov-05 11:30N 39°15' E 002°18'711.8
2017-Nov-05 10:54N 39°20' E 002°24'4 9.9
2017-Nov-05 10:30N 39°23' E 002°27'611.5
2017-Nov-05 10:00N 39°27' E 002°33'2 4.5
2017-Nov-05 09:30N 39°29' E 002°34'1 2.2
2017-Nov-05 09:00N 39°30' E 002°35'2 3.0
2017-Nov-05 08:30N 39°31' E 002°37'2 3.1
2017-Nov-05 08:00N 39°32' E 002°38'2 3.8
2017-Nov-05 07:30N 39°34' E 002°38'0 0.1
2017-Nov-05 06:59N 39°34' E 002°38'0 0.0
2017-Nov-05 06:29N 39°34' E 002°38'0 0.0
2017-Nov-05 05:59N 39°34' E 002°38'0 0.0
2017-Nov-05 05:29N 39°34' E 002°38'0 0.0
2017-Nov-05 04:59N 39°34' E 002°38'0 0.0
2017-Nov-05 04:26N 39°34' E 002°38'0 0.0
2017-Nov-05 03:59N 39°34' E 002°38'0 0.0
2017-Nov-05 03:28N 39°34' E 002°38'0 0.0
2017-Nov-05 02:59N 39°34' E 002°38'0 0.0
2017-Nov-05 02:29N 39°34' E 002°38'0 0.0
2017-Nov-05 01:59N 39°34' E 002°38'0 0.0
2017-Nov-05 01:28N 39°34' E 002°38'0 0.0
2017-Nov-05 00:58N 39°34' E 002°38'0 0.0
2017-Nov-05 00:29N 39°34' E 002°38'0 0.0
2017-Nov-04 23:58N 39°34' E 002°38'0 0.0
2017-Nov-04 23:28N 39°34' E 002°38'0 0.0
2017-Nov-04 22:59N 39°34' E 002°38'0 0.0
2017-Nov-04 22:28N 39°34' E 002°38'0 0.0
2017-Nov-04 21:59N 39°34' E 002°38'0 0.0
2017-Nov-04 21:29N 39°34' E 002°38'0 0.0
2017-Nov-04 20:58N 39°34' E 002°38'0 0.0
2017-Nov-04 20:28N 39°34' E 002°38'0 0.0
2017-Nov-04 19:58N 39°34' E 002°38'0 0.0
2017-Nov-04 19:28N 39°34' E 002°38'0 0.0
2017-Nov-04 18:58N 39°34' E 002°38'0 0.0
2017-Nov-04 18:28N 39°34' E 002°38'0 0.0
2017-Nov-04 17:58N 39°34' E 002°38'0 0.0
2017-Nov-04 17:26N 39°34' E 002°38'0 0.0
2017-Nov-04 16:59N 39°34' E 002°38'0 0.0
2017-Nov-04 16:29N 39°34' E 002°38'0 0.0
2017-Nov-04 15:59N 39°34' E 002°38'0 0.0
2017-Nov-04 15:28N 39°34' E 002°38'0 0.0
2017-Nov-04 14:58N 39°34' E 002°38'1 2.8
2017-Nov-04 14:30N 39°33' E 002°39'0 0.7
2017-Nov-04 14:00N 39°32' E 002°39'1 1.0
2017-Nov-04 13:30N 39°33' E 002°39'1 2.1
2017-Nov-04 12:58N 39°34' E 002°38'0 0.0
2017-Nov-04 12:28N 39°34' E 002°38'0 0.0
2017-Nov-04 11:58N 39°34' E 002°38'0 0.0
2017-Nov-04 11:28N 39°34' E 002°38'0 0.0
2017-Nov-04 10:58N 39°34' E 002°38'0 0.0
2017-Nov-04 10:28N 39°34' E 002°38'0 0.0
2017-Nov-04 09:55N 39°34' E 002°38'0 0.0
2017-Nov-04 09:28N 39°34' E 002°38'0 0.0
2017-Nov-04 08:58N 39°34' E 002°38'0 0.0
2017-Nov-04 08:28N 39°34' E 002°38'0 0.0
2017-Nov-04 07:58N 39°34' E 002°38'0 0.0
2017-Nov-04 07:28N 39°34' E 002°38'0 0.0
2017-Nov-04 06:58N 39°34' E 002°38'0 0.0
2017-Nov-04 06:28N 39°34' E 002°38'0 0.0
2017-Nov-04 05:58N 39°34' E 002°38'0 0.0
2017-Nov-04 05:28N 39°34' E 002°38'0 0.0
2017-Nov-04 04:57N 39°34' E 002°38'0 0.0
2017-Nov-04 04:31N 39°34' E 002°38'0 0.0
2017-Nov-04 04:01N 39°34' E 002°38'0 0.0
2017-Nov-04 03:31N 39°34' E 002°38'0 0.0
2017-Nov-04 03:01N 39°34' E 002°38'0 0.0
2017-Nov-04 02:30N 39°34' E 002°38'0 0.0
2017-Nov-04 02:01N 39°34' E 002°38'0 0.0
2017-Nov-04 01:30N 39°34' E 002°38'0 0.0
2017-Nov-04 00:57N 39°34' E 002°38'0 0.0
2017-Nov-04 00:28N 39°34' E 002°38'0 0.0
2017-Nov-04 00:01N 39°34' E 002°38'0 0.0
2017-Nov-03 23:31N 39°34' E 002°38'0 0.0
2017-Nov-03 23:01N 39°34' E 002°38'0 0.0
2017-Nov-03 22:30N 39°34' E 002°38'0 0.0
2017-Nov-03 22:01N 39°34' E 002°38'0 0.0
2017-Nov-03 21:30N 39°34' E 002°38'0 0.0
2017-Nov-03 21:01N 39°34' E 002°38'0 0.0
2017-Nov-03 20:30N 39°34' E 002°38'0 0.0
2017-Nov-03 20:01N 39°34' E 002°38'0 0.0
2017-Nov-03 19:31N 39°34' E 002°38'0 0.0
2017-Nov-03 19:00N 39°34' E 002°38'0 0.0
2017-Nov-03 18:31N 39°34' E 002°38'0 0.0
2017-Nov-03 18:00N 39°34' E 002°38'0 0.0
2017-Nov-03 17:30N 39°34' E 002°38'0 0.0
2017-Nov-03 17:00N 39°34' E 002°38'0 0.0
2017-Nov-03 16:31N 39°34' E 002°38'0 0.0
2017-Nov-03 16:01N 39°34' E 002°38'0 0.0
2017-Nov-03 15:30N 39°34' E 002°38'0 0.0
2017-Nov-03 15:00N 39°34' E 002°38'0 0.0
2017-Nov-03 14:30N 39°34' E 002°38'0 0.0
2017-Nov-03 14:00N 39°34' E 002°38'0 0.0
2017-Nov-03 13:30N 39°34' E 002°38'0 0.0
2017-Nov-03 13:00N 39°34' E 002°38'0 0.0
2017-Nov-03 12:30N 39°34' E 002°38'0 0.0
2017-Nov-03 12:00N 39°34' E 002°38'0 0.0
2017-Nov-03 11:30N 39°34' E 002°38'0 0.0
2017-Nov-03 11:00N 39°34' E 002°38'0 0.0
2017-Nov-03 10:30N 39°34' E 002°38'0 0.0
2017-Nov-03 10:00N 39°34' E 002°38'0 0.0
2017-Nov-03 09:30N 39°34' E 002°38'0 0.0
2017-Nov-03 09:00N 39°34' E 002°38'0 0.0
2017-Nov-03 08:30N 39°34' E 002°38'0 0.0
2017-Nov-03 08:00N 39°34' E 002°38'0 0.0
2017-Nov-03 07:30N 39°34' E 002°38'0 0.0
2017-Nov-03 07:00N 39°34' E 002°38'0 0.0
2017-Nov-03 06:30N 39°34' E 002°38'0 0.0
2017-Nov-03 06:00N 39°34' E 002°38'0 0.0
2017-Nov-03 05:30N 39°34' E 002°38'0 0.0
2017-Nov-03 05:00N 39°34' E 002°38'0 0.0
2017-Nov-03 04:30N 39°34' E 002°38'0 0.0
2017-Nov-03 04:00N 39°34' E 002°38'0 0.0
2017-Nov-03 03:29N 39°34' E 002°38'0 0.0
2017-Nov-03 02:59N 39°34' E 002°38'0 0.0
2017-Nov-03 02:29N 39°34' E 002°38'0 0.0
2017-Nov-03 01:59N 39°34' E 002°38'0 0.0
2017-Nov-03 01:29N 39°34' E 002°38'0 0.0
2017-Nov-03 00:59N 39°34' E 002°38'0 0.0
2017-Nov-03 00:29N 39°34' E 002°38'0 0.0
2017-Nov-02 23:59N 39°34' E 002°38'0 0.0
2017-Nov-02 23:29N 39°34' E 002°38'0 0.0
2017-Nov-02 22:59N 39°34' E 002°38'0 0.0
2017-Nov-02 22:29N 39°34' E 002°38'0 0.0
2017-Nov-02 21:59N 39°34' E 002°38'0 0.0
2017-Nov-02 21:29N 39°34' E 002°38'0 0.0
2017-Nov-02 20:59N 39°34' E 002°38'0 0.0
2017-Nov-02 20:29N 39°34' E 002°38'0 0.0
2017-Nov-02 19:59N 39°34' E 002°38'0 0.0
2017-Nov-02 19:26N 39°34' E 002°38'0 0.0
2017-Nov-02 18:59N 39°34' E 002°38'0 0.0
2017-Nov-02 18:29N 39°34' E 002°38'0 0.0
2017-Nov-02 17:59N 39°34' E 002°38'0 0.0
2017-Nov-02 17:29N 39°34' E 002°38'0 0.0
2017-Nov-02 16:59N 39°34' E 002°38'0 0.0
2017-Nov-02 16:29N 39°34' E 002°38'0 0.0
2017-Nov-02 15:59N 39°34' E 002°38'  
Track history (hours):
 
Tides and Currents Weather Stations Pressure Air Temp Water Temp Dewpoint Dewpoint Depression Visibility Wind Speed Wind Dir Waves Ship Positions

P2

Last reported at 2017-Nov-12 15:38 UTC. Time now 2017-Nov-19 21:41 UTC.
Position N 28°28' W 016°15'.

Length 38 m; draft 5.5 m.

Type: Sailing vessel. MMSI: 319400000.

Date/timePositionNaut miles runAvg speedWind from/ knotsBaromVisibWave heightAir tempDewpointWater temp
2017-Nov-12 15:38N 28°28' W 016°15'0 0.0
2017-Nov-12 15:26N 28°28' W 016°15'0 0.0
2017-Nov-12 13:56N 28°28' W 016°15'0 0.0
2017-Nov-12 13:29N 28°28' W 016°15'0 0.0
2017-Nov-12 12:59N 28°28' W 016°15'0 0.0
2017-Nov-12 12:26N 28°28' W 016°15'0 0.0
2017-Nov-12 11:59N 28°28' W 016°15'0 0.0
2017-Nov-12 10:17N 28°28' W 016°15'0 0.0
2017-Nov-12 08:50N 28°28' W 016°15'0 0.0
2017-Nov-12 08:29N 28°28' W 016°15'0 0.0
2017-Nov-12 03:53N 28°28' W 016°15'0 0.0
2017-Nov-12 03:26N 28°28' W 016°15'0 0.0
2017-Nov-12 02:56N 28°28' W 016°15'0 0.0
2017-Nov-12 02:23N 28°28' W 016°15'0 0.0
2017-Nov-12 01:11N 28°28' W 016°15'0 0.0
2017-Nov-12 00:53N 28°28' W 016°15'0 0.0
2017-Nov-12 00:29N 28°28' W 016°15'0 0.0
2017-Nov-11 23:59N 28°28' W 016°15'0 0.0
2017-Nov-11 23:29N 28°28' W 016°15'0 0.0
2017-Nov-11 22:59N 28°28' W 016°15'0 0.0
2017-Nov-11 22:29N 28°28' W 016°15'0 0.0
2017-Nov-11 21:59N 28°28' W 016°15'0 0.0
2017-Nov-11 21:29N 28°28' W 016°15'0 0.0
2017-Nov-11 20:59N 28°28' W 016°15'0 0.0
2017-Nov-11 20:29N 28°28' W 016°15'0 0.0
2017-Nov-11 19:59N 28°28' W 016°15'0 0.0
2017-Nov-11 19:17N 28°28' W 016°15'0 0.0
2017-Nov-11 19:00N 28°28' W 016°15'0 0.0
2017-Nov-11 18:30N 28°28' W 016°15'0 0.0
2017-Nov-11 18:00N 28°28' W 016°15'0 0.0
2017-Nov-11 17:30N 28°28' W 016°15'0 0.0
2017-Nov-11 17:00N 28°28' W 016°15'0 0.0
2017-Nov-11 16:30N 28°28' W 016°15'0 0.1
2017-Nov-11 16:01N 28°28' W 016°15'1 1.8
2017-Nov-11 15:30N 28°27' W 016°14'4 8.8
2017-Nov-11 15:00N 28°29' W 016°09'4 8.5
2017-Nov-11 14:30N 28°32' W 016°06'4 8.6
2017-Nov-11 14:00N 28°34' W 016°02'5 9.2
2017-Nov-11 13:30N 28°37' W 015°57'5 8.9
2017-Nov-11 12:59N 28°40' W 015°53'4 9.2
2017-Nov-11 12:30N 28°43' W 015°49'5 9.2
2017-Nov-11 12:00N 28°46' W 015°45'5 9.4
2017-Nov-11 11:30N 28°49' W 015°41'5 9.2
2017-Nov-11 11:00N 28°51' W 015°37'5 9.2
2017-Nov-11 10:30N 28°54' W 015°33'5 9.1
2017-Nov-11 10:00N 28°57' W 015°29'4 9.0
2017-Nov-11 09:30N 28°60' W 015°25'5 9.3
2017-Nov-11 09:00N 29°03' W 015°21'5 9.3
2017-Nov-11 08:30N 29°06' W 015°16'5 9.2
2017-Nov-11 08:00N 29°08' W 015°12'5 9.0
2017-Nov-11 07:31N 29°11' W 015°08'4 8.8
2017-Nov-11 07:00N 29°14' W 015°04'5 9.1
2017-Nov-11 06:30N 29°16' W 015°00'5 9.2
2017-Nov-11 06:00N 29°19' W 014°56'5 9.4
2017-Nov-11 05:30N 29°22' W 014°51'5 9.0
2017-Nov-11 05:00N 29°25' W 014°47'5 9.2
2017-Nov-11 04:30N 29°28' W 014°43'4 9.1
2017-Nov-11 04:01N 29°30' W 014°39'5 9.2
2017-Nov-11 03:30N 29°33' W 014°35'5 9.1
2017-Nov-11 03:01N 29°36' W 014°31'5 9.0
2017-Nov-11 02:30N 29°39' W 014°27'5 9.1
2017-Nov-11 02:00N 29°42' W 014°23'5 9.0
2017-Nov-11 01:30N 29°45' W 014°19'4 9.0
2017-Nov-11 01:00N 29°49' W 014°16'5 9.2
2017-Nov-11 00:30N 29°52' W 014°12'5 9.3
2017-Nov-10 23:58N 29°56' W 014°08'4 9.2
2017-Nov-10 23:30N 29°59' W 014°05'5 9.4
2017-Nov-10 22:59N 30°02' W 014°01'4 9.4
2017-Nov-10 22:30N 30°06' W 013°58'7 9.2
2017-Nov-10 21:48N 30°11' W 013°53'8 9.1
2017-Nov-10 20:52N 30°17' W 013°46'4 8.9
2017-Nov-10 20:26N 30°20' W 013°43'4 8.6
2017-Nov-10 20:00N 30°23' W 013°40'4 8.9
2017-Nov-10 19:31N 30°26' W 013°37'5 8.8
2017-Nov-10 19:00N 30°30' W 013°34'5 9.1
2017-Nov-10 18:28N 30°34' W 013°31'4 9.1
2017-Nov-10 18:00N 30°37' W 013°28'6 9.1
2017-Nov-10 17:24N 30°42' W 013°25'9 9.4
2017-Nov-10 16:28N 30°49' W 013°19'5 9.3
2017-Nov-10 15:57N 30°53' W 013°17'47 9.1
2017-Nov-10 10:48N 31°31' W 012°44'17 8.9
2017-Nov-10 08:57N 31°45' W 012°34'410.2
2017-Nov-10 08:30N 31°48' W 012°30'610.3
2017-Nov-10 07:57N 31°53' W 012°26'610.2
2017-Nov-10 07:21N 31°57' W 012°21'2810.5
2017-Nov-10 04:43N 32°18' W 012°00'1910.6
2017-Nov-10 02:53N 32°33' W 011°46'  
2017-Nov-07 14:51N 36°08' W 005°22'0 0.0
2017-Nov-07 14:25N 36°08' W 005°22'0 0.0
2017-Nov-07 14:00N 36°08' W 005°22'0 0.0
2017-Nov-07 13:30N 36°08' W 005°22'0 0.7
2017-Nov-07 13:00N 36°09' W 005°22'0 0.0
2017-Nov-07 12:30N 36°09' W 005°22'0 0.0
2017-Nov-07 12:00N 36°09' W 005°22'0 0.0
2017-Nov-07 11:30N 36°09' W 005°22'1 1.2
2017-Nov-07 11:00N 36°09' W 005°23'2 3.8
2017-Nov-07 10:30N 36°07' W 005°22'4 8.7
2017-Nov-07 10:00N 36°06' W 005°17'510.4
2017-Nov-07 09:30N 36°07' W 005°10'6 9.2
2017-Nov-07 08:51N 36°07' W 005°03'3 8.6
2017-Nov-07 08:30N 36°07' W 004°59'4 8.2
2017-Nov-07 08:01N 36°08' W 004°54'4 7.7
2017-Nov-07 07:30N 36°08' W 004°49'4 7.3
2017-Nov-07 07:00N 36°09' W 004°45'4 7.7
2017-Nov-07 06:30N 36°09' W 004°40'4 8.2
2017-Nov-07 06:00N 36°10' W 004°35'4 8.5
2017-Nov-07 05:30N 36°10' W 004°30'4 8.4
2017-Nov-07 05:00N 36°11' W 004°25'4 8.1
2017-Nov-07 04:30N 36°11' W 004°20'4 8.0
2017-Nov-07 04:00N 36°11' W 004°15'4 8.1
2017-Nov-07 03:30N 36°12' W 004°10'4 8.1
2017-Nov-07 03:00N 36°12' W 004°05'4 8.1
2017-Nov-07 02:30N 36°12' W 003°60'4 7.8
2017-Nov-07 02:00N 36°12' W 003°55'4 7.5
2017-Nov-07 01:30N 36°12' W 003°50'4 8.3
2017-Nov-07 01:00N 36°12' W 003°45'5 9.2
2017-Nov-07 00:30N 36°14' W 003°40'5 9.8
2017-Nov-07 00:00N 36°15' W 003°34'5 9.7
2017-Nov-06 23:30N 36°16' W 003°28'5 9.3
2017-Nov-06 23:00N 36°17' W 003°23'5 9.4
2017-Nov-06 22:30N 36°18' W 003°17'5 9.5
2017-Nov-06 22:00N 36°19' W 003°11'5 9.6
2017-Nov-06 21:30N 36°20' W 003°05'5 9.8
2017-Nov-06 21:00N 36°20' W 002°59'5 9.6
2017-Nov-06 20:30N 36°21' W 002°53'298 9.2
2017-Nov-05 11:54N 39°12' E 002°16'4 8.8
2017-Nov-05 11:30N 39°15' E 002°18'711.8
2017-Nov-05 10:54N 39°20' E 002°24'4 9.9
2017-Nov-05 10:30N 39°23' E 002°27'611.5
2017-Nov-05 10:00N 39°27' E 002°33'2 4.5
2017-Nov-05 09:30N 39°29' E 002°34'1 2.2
2017-Nov-05 09:00N 39°30' E 002°35'2 3.0
2017-Nov-05 08:30N 39°31' E 002°37'2 3.1
2017-Nov-05 08:00N 39°32' E 002°38'2 3.8
2017-Nov-05 07:30N 39°34' E 002°38'0 0.1
2017-Nov-05 06:59N 39°34' E 002°38'0 0.0
2017-Nov-05 06:29N 39°34' E 002°38'0 0.0
2017-Nov-05 05:59N 39°34' E 002°38'0 0.0
2017-Nov-05 05:29N 39°34' E 002°38'0 0.0
2017-Nov-05 04:59N 39°34' E 002°38'0 0.0
2017-Nov-05 04:26N 39°34' E 002°38'0 0.0
2017-Nov-05 03:59N 39°34' E 002°38'0 0.0
2017-Nov-05 03:28N 39°34' E 002°38'0 0.0
2017-Nov-05 02:59N 39°34' E 002°38'0 0.0
2017-Nov-05 02:29N 39°34' E 002°38'0 0.0
2017-Nov-05 01:59N 39°34' E 002°38'0 0.0
2017-Nov-05 01:28N 39°34' E 002°38'0 0.0
2017-Nov-05 00:58N 39°34' E 002°38'0 0.0
2017-Nov-05 00:29N 39°34' E 002°38'0 0.0
2017-Nov-04 23:58N 39°34' E 002°38'0 0.0
2017-Nov-04 23:28N 39°34' E 002°38'0 0.0
2017-Nov-04 22:59N 39°34' E 002°38'0 0.0
2017-Nov-04 22:28N 39°34' E 002°38'0 0.0
2017-Nov-04 21:59N 39°34' E 002°38'0 0.0
2017-Nov-04 21:29N 39°34' E 002°38'0 0.0
2017-Nov-04 20:58N 39°34' E 002°38'0 0.0
2017-Nov-04 20:28N 39°34' E 002°38'0 0.0
2017-Nov-04 19:58N 39°34' E 002°38'0 0.0
2017-Nov-04 19:28N 39°34' E 002°38'0 0.0
2017-Nov-04 18:58N 39°34' E 002°38'0 0.0
2017-Nov-04 18:28N 39°34' E 002°38'0 0.0
2017-Nov-04 17:58N 39°34' E 002°38'0 0.0
2017-Nov-04 17:26N 39°34' E 002°38'0 0.0
2017-Nov-04 16:59N 39°34' E 002°38'0 0.0
2017-Nov-04 16:29N 39°34' E 002°38'0 0.0
2017-Nov-04 15:59N 39°34' E 002°38'0 0.0
2017-Nov-04 15:28N 39°34' E 002°38'0 0.0
2017-Nov-04 14:58N 39°34' E 002°38'1 2.8
2017-Nov-04 14:30N 39°33' E 002°39'0 0.7
2017-Nov-04 14:00N 39°32' E 002°39'1 1.0
2017-Nov-04 13:30N 39°33' E 002°39'1 2.1
2017-Nov-04 12:58N 39°34' E 002°38'0 0.0
2017-Nov-04 12:28N 39°34' E 002°38'0 0.0
2017-Nov-04 11:58N 39°34' E 002°38'0 0.0
2017-Nov-04 11:28N 39°34' E 002°38'0 0.0
2017-Nov-04 10:58N 39°34' E 002°38'0 0.0
2017-Nov-04 10:28N 39°34' E 002°38'0 0.0
2017-Nov-04 09:55N 39°34' E 002°38'0 0.0
2017-Nov-04 09:28N 39°34' E 002°38'0 0.0
2017-Nov-04 08:58N 39°34' E 002°38'0 0.0
2017-Nov-04 08:28N 39°34' E 002°38'0 0.0
2017-Nov-04 07:58N 39°34' E 002°38'0 0.0
2017-Nov-04 07:28N 39°34' E 002°38'0 0.0
2017-Nov-04 06:58N 39°34' E 002°38'0 0.0
2017-Nov-04 06:28N 39°34' E 002°38'0 0.0
2017-Nov-04 05:58N 39°34' E 002°38'0 0.0
2017-Nov-04 05:28N 39°34' E 002°38'0 0.0
2017-Nov-04 04:57N 39°34' E 002°38'0 0.0
2017-Nov-04 04:31N 39°34' E 002°38'0 0.0
2017-Nov-04 04:01N 39°34' E 002°38'0 0.0
2017-Nov-04 03:31N 39°34' E 002°38'0 0.0
2017-Nov-04 03:01N 39°34' E 002°38'0 0.0
2017-Nov-04 02:30N 39°34' E 002°38'0 0.0
2017-Nov-04 02:01N 39°34' E 002°38'0 0.0
2017-Nov-04 01:30N 39°34' E 002°38'0 0.0
2017-Nov-04 00:57N 39°34' E 002°38'0 0.0
2017-Nov-04 00:28N 39°34' E 002°38'0 0.0
2017-Nov-04 00:01N 39°34' E 002°38'0 0.0
2017-Nov-03 23:31N 39°34' E 002°38'0 0.0
2017-Nov-03 23:01N 39°34' E 002°38'0 0.0
2017-Nov-03 22:30N 39°34' E 002°38'0 0.0
2017-Nov-03 22:01N 39°34' E 002°38'0 0.0
2017-Nov-03 21:30N 39°34' E 002°38'0 0.0
2017-Nov-03 21:01N 39°34' E 002°38'0 0.0
2017-Nov-03 20:30N 39°34' E 002°38'0 0.0
2017-Nov-03 20:01N 39°34' E 002°38'0 0.0
2017-Nov-03 19:31N 39°34' E 002°38'0 0.0
2017-Nov-03 19:00N 39°34' E 002°38'0 0.0
2017-Nov-03 18:31N 39°34' E 002°38'0 0.0
2017-Nov-03 18:00N 39°34' E 002°38'0 0.0
2017-Nov-03 17:30N 39°34' E 002°38'0 0.0
2017-Nov-03 17:00N 39°34' E 002°38'0 0.0
2017-Nov-03 16:31N 39°34' E 002°38'0 0.0
2017-Nov-03 16:01N 39°34' E 002°38'0 0.0
2017-Nov-03 15:30N 39°34' E 002°38'0 0.0
2017-Nov-03 15:00N 39°34' E 002°38'0 0.0
2017-Nov-03 14:30N 39°34' E 002°38'0 0.0
2017-Nov-03 14:00N 39°34' E 002°38'0 0.0
2017-Nov-03 13:30N 39°34' E 002°38'0 0.0
2017-Nov-03 13:00N 39°34' E 002°38'0 0.0
2017-Nov-03 12:30N 39°34' E 002°38'0 0.0
2017-Nov-03 12:00N 39°34' E 002°38'0 0.0
2017-Nov-03 11:30N 39°34' E 002°38'0 0.0
2017-Nov-03 11:00N 39°34' E 002°38'0 0.0
2017-Nov-03 10:30N 39°34' E 002°38'0 0.0
2017-Nov-03 10:00N 39°34' E 002°38'0 0.0
2017-Nov-03 09:30N 39°34' E 002°38'0 0.0
2017-Nov-03 09:00N 39°34' E 002°38'0 0.0
2017-Nov-03 08:30N 39°34' E 002°38'0 0.0
2017-Nov-03 08:00N 39°34' E 002°38'0 0.0
2017-Nov-03 07:30N 39°34' E 002°38'0 0.0
2017-Nov-03 07:00N 39°34' E 002°38'0 0.0
2017-Nov-03 06:30N 39°34' E 002°38'0 0.0
2017-Nov-03 06:00N 39°34' E 002°38'0 0.0
2017-Nov-03 05:30N 39°34' E 002°38'0 0.0
2017-Nov-03 05:00N 39°34' E 002°38'0 0.0
2017-Nov-03 04:30N 39°34' E 002°38'0 0.0
2017-Nov-03 04:00N 39°34' E 002°38'0 0.0
2017-Nov-03 03:29N 39°34' E 002°38'0 0.0
2017-Nov-03 02:59N 39°34' E 002°38'0 0.0
2017-Nov-03 02:29N 39°34' E 002°38'0 0.0
2017-Nov-03 01:59N 39°34' E 002°38'0 0.0
2017-Nov-03 01:29N 39°34' E 002°38'0 0.0
2017-Nov-03 00:59N 39°34' E 002°38'0 0.0
2017-Nov-03 00:29N 39°34' E 002°38'0 0.0
2017-Nov-02 23:59N 39°34' E 002°38'0 0.0
2017-Nov-02 23:29N 39°34' E 002°38'0 0.0
2017-Nov-02 22:59N 39°34' E 002°38'0 0.0
2017-Nov-02 22:29N 39°34' E 002°38'0 0.0
2017-Nov-02 21:59N 39°34' E 002°38'0 0.0
2017-Nov-02 21:29N 39°34' E 002°38'0 0.0
2017-Nov-02 20:59N 39°34' E 002°38'0 0.0
2017-Nov-02 20:29N 39°34' E 002°38'0 0.0
2017-Nov-02 19:59N 39°34' E 002°38'0 0.0
2017-Nov-02 19:26N 39°34' E 002°38'0 0.0
2017-Nov-02 18:59N 39°34' E 002°38'0 0.0
2017-Nov-02 18:29N 39°34' E 002°38'0 0.0
2017-Nov-02 17:59N 39°34' E 002°38'0 0.0
2017-Nov-02 17:29N 39°34' E 002°38'0 0.0
2017-Nov-02 16:59N 39°34' E 002°38'0 0.0
2017-Nov-02 16:29N 39°34' E 002°38'0 0.0
2017-Nov-02 15:59N 39°34' E 002°38'  

Dump ship's entire track history